sensor_id;sensor_type;location;lat;lon;timestamp;pressure;altitude;pressure_sealevel;temperature;humidity
73941;BME280;62294;48.554;10.202;2023-06-01T00:00:50;89085.56;;;10.24;100.00
73941;BME280;62294;48.554;10.202;2023-06-01T00:03:17;89119.25;;;10.27;100.00
73941;BME280;62294;48.554;10.202;2023-06-01T00:05:44;89130.63;;;10.31;100.00
73941;BME280;62294;48.554;10.202;2023-06-01T00:08:11;89144.28;;;10.26;100.00
73941;BME280;62294;48.554;10.202;2023-06-01T00:10:37;89133.66;;;10.29;100.00
73941;BME280;62294;48.554;10.202;2023-06-01T00:13:04;89145.78;;;10.27;100.00
73941;BME280;62294;48.554;10.202;2023-06-01T00:15:30;89150.72;;;10.18;100.00
73941;BME280;62294;48.554;10.202;2023-06-01T00:17:57;89162.47;;;10.10;100.00
73941;BME280;62294;48.554;10.202;2023-06-01T00:20:27;89185.19;;;10.00;100.00
73941;BME280;62294;48.554;10.202;2023-06-01T00:22:55;89137.88;;;9.88;100.00
73941;BME280;62294;48.554;10.202;2023-06-01T00:25:22;89144.34;;;9.80;100.00
73941;BME280;62294;48.554;10.202;2023-06-01T00:27:48;89318.47;;;9.79;100.00
73941;BME280;62294;48.554;10.202;2023-06-01T00:30:15;89347.25;;;9.74;100.00
73941;BME280;62294;48.554;10.202;2023-06-01T00:32:41;89633.38;;;9.70;100.00
73941;BME280;62294;48.554;10.202;2023-06-01T00:35:08;89661.75;;;9.70;100.00
73941;BME280;62294;48.554;10.202;2023-06-01T00:37:34;90258.16;;;9.80;100.00
73941;BME280;62294;48.554;10.202;2023-06-01T00:40:03;90308.28;;;9.89;100.00
73941;BME280;62294;48.554;10.202;2023-06-01T00:42:30;90296.31;;;9.98;100.00
73941;BME280;62294;48.554;10.202;2023-06-01T00:44:56;90379.56;;;9.94;100.00
73941;BME280;62294;48.554;10.202;2023-06-01T00:47:25;90399.22;;;9.93;100.00
73941;BME280;62294;48.554;10.202;2023-06-01T00:49:52;90429.16;;;9.93;100.00
73941;BME280;62294;48.554;10.202;2023-06-01T00:52:20;90454.44;;;9.87;100.00
73941;BME280;62294;48.554;10.202;2023-06-01T00:54:47;90459.09;;;9.94;100.00
73941;BME280;62294;48.554;10.202;2023-06-01T00:57:14;90495.25;;;9.83;100.00
73941;BME280;62294;48.554;10.202;2023-06-01T00:59:41;90526.13;;;9.75;100.00
73941;BME280;62294;48.554;10.202;2023-06-01T01:02:08;90535.31;;;9.81;100.00
73941;BME280;62294;48.554;10.202;2023-06-01T01:04:34;90563.06;;;9.68;100.00
73941;BME280;62294;48.554;10.202;2023-06-01T01:07:25;90581.47;;;9.61;100.00
73941;BME280;62294;48.554;10.202;2023-06-01T01:09:57;90609.66;;;9.54;100.00
73941;BME280;62294;48.554;10.202;2023-06-01T01:15:07;90678.25;;;9.55;100.00
73941;BME280;62294;48.554;10.202;2023-06-01T01:17:37;90705.16;;;9.57;100.00
73941;BME280;62294;48.554;10.202;2023-06-01T01:20:13;90744.66;;;9.47;100.00
73941;BME280;62294;48.554;10.202;2023-06-01T01:26:01;90774.22;;;9.49;100.00
73941;BME280;62294;48.554;10.202;2023-06-01T01:29:09;90827.59;;;9.35;100.00
73941;BME280;62294;48.554;10.202;2023-06-01T01:31:37;90869.56;;;9.33;100.00
73941;BME280;62294;48.554;10.202;2023-06-01T01:34:06;90911.28;;;9.24;100.00
73941;BME280;62294;48.554;10.202;2023-06-01T01:36:34;91011.25;;;9.15;100.00
73941;BME280;62294;48.554;10.202;2023-06-01T01:39:02;91070.06;;;9.08;100.00
73941;BME280;62294;48.554;10.202;2023-06-01T01:41:29;91122.13;;;9.04;100.00
73941;BME280;62294;48.554;10.202;2023-06-01T01:43:56;91147.88;;;9.16;100.00
73941;BME280;62294;48.554;10.202;2023-06-01T01:46:27;91179.25;;;9.26;100.00
73941;BME280;62294;48.554;10.202;2023-06-01T01:48:58;91197.34;;;9.24;100.00
73941;BME280;62294;48.554;10.202;2023-06-01T01:51:54;91218.09;;;9.01;100.00
73941;BME280;62294;48.554;10.202;2023-06-01T01:54:24;91277.41;;;8.88;100.00
73941;BME280;62294;48.554;10.202;2023-06-01T01:56:53;91318.72;;;8.81;100.00
73941;BME280;62294;48.554;10.202;2023-06-01T01:59:20;91326.81;;;8.84;100.00
73941;BME280;62294;48.554;10.202;2023-06-01T02:01:47;91347.28;;;8.96;100.00
73941;BME280;62294;48.554;10.202;2023-06-01T02:04:14;91372.06;;;8.91;100.00
73941;BME280;62294;48.554;10.202;2023-06-01T02:06:40;91402.34;;;8.82;100.00
73941;BME280;62294;48.554;10.202;2023-06-01T02:09:07;91420.41;;;8.80;100.00
73941;BME280;62294;48.554;10.202;2023-06-01T02:11:34;91438.09;;;8.88;100.00
73941;BME280;62294;48.554;10.202;2023-06-01T02:14:01;91474.44;;;8.79;100.00
73941;BME280;62294;48.554;10.202;2023-06-01T02:16:28;91490.31;;;8.79;100.00
73941;BME280;62294;48.554;10.202;2023-06-01T02:18:55;91533.66;;;8.66;100.00
73941;BME280;62294;48.554;10.202;2023-06-01T02:21:24;91570.69;;;8.66;100.00
73941;BME280;62294;48.554;10.202;2023-06-01T02:23:51;91565.09;;;8.76;100.00
73941;BME280;62294;48.554;10.202;2023-06-01T02:26:18;91596.06;;;8.75;100.00
73941;BME280;62294;48.554;10.202;2023-06-01T02:28:44;91624.09;;;8.68;100.00
73941;BME280;62294;48.554;10.202;2023-06-01T02:31:13;91662.41;;;8.53;100.00
73941;BME280;62294;48.554;10.202;2023-06-01T02:33:40;91718.75;;;8.53;100.00
73941;BME280;62294;48.554;10.202;2023-06-01T02:36:07;91810.13;;;8.51;100.00
73941;BME280;62294;48.554;10.202;2023-06-01T02:38:34;91920.94;;;8.52;100.00
73941;BME280;62294;48.554;10.202;2023-06-01T02:41:00;91983.66;;;8.52;100.00
73941;BME280;62294;48.554;10.202;2023-06-01T02:43:27;92018.06;;;8.52;100.00
73941;BME280;62294;48.554;10.202;2023-06-01T02:45:53;92055.06;;;8.43;100.00
73941;BME280;62294;48.554;10.202;2023-06-01T02:48:20;92062.38;;;8.46;100.00
73941;BME280;62294;48.554;10.202;2023-06-01T02:50:46;92070.28;;;8.38;100.00
73941;BME280;62294;48.554;10.202;2023-06-01T02:53:14;92076.25;;;8.43;100.00
73941;BME280;62294;48.554;10.202;2023-06-01T02:55:41;92074.06;;;8.45;100.00
73941;BME280;62294;48.554;10.202;2023-06-01T02:58:08;92092.09;;;8.43;100.00
73941;BME280;62294;48.554;10.202;2023-06-01T03:00:44;92124.09;;;8.33;100.00
73941;BME280;62294;48.554;10.202;2023-06-01T03:03:11;92126.72;;;8.33;100.00
73941;BME280;62294;48.554;10.202;2023-06-01T03:05:38;92170.25;;;8.27;100.00
73941;BME280;62294;48.554;10.202;2023-06-01T03:08:06;92213.25;;;8.19;100.00
73941;BME280;62294;48.554;10.202;2023-06-01T03:10:32;92259.09;;;8.28;100.00
73941;BME280;62294;48.554;10.202;2023-06-01T03:12:59;92325.16;;;8.33;100.00
73941;BME280;62294;48.554;10.202;2023-06-01T03:15:25;92357.28;;;8.40;100.00
73941;BME280;62294;48.554;10.202;2023-06-01T03:17:53;92437.63;;;8.31;100.00
73941;BME280;62294;48.554;10.202;2023-06-01T03:20:20;92185.25;;;8.32;100.00
73941;BME280;62294;48.554;10.202;2023-06-01T03:22:46;92159.56;;;8.32;100.00
73941;BME280;62294;48.554;10.202;2023-06-01T03:25:13;92143.41;;;8.20;100.00
73941;BME280;62294;48.554;10.202;2023-06-01T03:27:40;92115.78;;;8.26;100.00
73941;BME280;62294;48.554;10.202;2023-06-01T03:30:08;92082.47;;;8.25;100.00
73941;BME280;62294;48.554;10.202;2023-06-01T03:32:39;92006.78;;;8.16;100.00
73941;BME280;62294;48.554;10.202;2023-06-01T03:35:07;91985.97;;;8.23;100.00
73941;BME280;62294;48.554;10.202;2023-06-01T03:37:35;91963.44;;;8.25;100.00
73941;BME280;62294;48.554;10.202;2023-06-01T03:40:03;91937.00;;;8.25;100.00
73941;BME280;62294;48.554;10.202;2023-06-01T03:42:37;91947.81;;;8.15;100.00
73941;BME280;62294;48.554;10.202;2023-06-01T03:45:04;91946.81;;;8.03;100.00
73941;BME280;62294;48.554;10.202;2023-06-01T03:47:32;91922.00;;;8.12;100.00
73941;BME280;62294;48.554;10.202;2023-06-01T03:50:00;91885.16;;;8.24;100.00
73941;BME280;62294;48.554;10.202;2023-06-01T03:52:28;91863.44;;;8.27;100.00
73941;BME280;62294;48.554;10.202;2023-06-01T03:54:58;91857.53;;;8.30;100.00
73941;BME280;62294;48.554;10.202;2023-06-01T03:57:27;91824.88;;;8.43;100.00
73941;BME280;62294;48.554;10.202;2023-06-01T03:59:53;91798.63;;;8.55;100.00
73941;BME280;62294;48.554;10.202;2023-06-01T04:02:20;91790.97;;;8.54;100.00
73941;BME280;62294;48.554;10.202;2023-06-01T04:04:48;91787.09;;;8.60;100.00
73941;BME280;62294;48.554;10.202;2023-06-01T04:07:15;91775.41;;;8.61;100.00
73941;BME280;62294;48.554;10.202;2023-06-01T04:09:45;91762.66;;;8.72;100.00
73941;BME280;62294;48.554;10.202;2023-06-01T04:12:13;91756.75;;;8.75;100.00
73941;BME280;62294;48.554;10.202;2023-06-01T04:14:40;91756.28;;;8.73;100.00
73941;BME280;62294;48.554;10.202;2023-06-01T04:17:07;91758.13;;;8.64;100.00
73941;BME280;62294;48.554;10.202;2023-06-01T04:19:34;91745.69;;;8.73;100.00
73941;BME280;62294;48.554;10.202;2023-06-01T04:22:01;91752.09;;;8.80;100.00
73941;BME280;62294;48.554;10.202;2023-06-01T04:24:27;91717.94;;;9.04;100.00
73941;BME280;62294;48.554;10.202;2023-06-01T04:26:54;91718.72;;;9.05;100.00
73941;BME280;62294;48.554;10.202;2023-06-01T04:29:22;91720.25;;;9.06;100.00
73941;BME280;62294;48.554;10.202;2023-06-01T04:31:50;91731.03;;;9.01;100.00
73941;BME280;62294;48.554;10.202;2023-06-01T04:34:17;91730.25;;;9.00;100.00
73941;BME280;62294;48.554;10.202;2023-06-01T04:36:44;91721.69;;;9.12;100.00
73941;BME280;62294;48.554;10.202;2023-06-01T04:39:12;91704.69;;;9.21;100.00
73941;BME280;62294;48.554;10.202;2023-06-01T04:41:39;91696.84;;;9.34;100.00
73941;BME280;62294;48.554;10.202;2023-06-01T04:44:05;91671.69;;;9.48;100.00
73941;BME280;62294;48.554;10.202;2023-06-01T04:46:33;91666.97;;;9.62;100.00
73941;BME280;62294;48.554;10.202;2023-06-01T04:49:01;91628.50;;;9.85;100.00
73941;BME280;62294;48.554;10.202;2023-06-01T04:51:29;91612.13;;;10.04;100.00
73941;BME280;62294;48.554;10.202;2023-06-01T04:53:57;91631.66;;;9.99;100.00
73941;BME280;62294;48.554;10.202;2023-06-01T04:56:25;91649.59;;;10.02;100.00
73941;BME280;62294;48.554;10.202;2023-06-01T04:58:54;91683.50;;;9.97;100.00
73941;BME280;62294;48.554;10.202;2023-06-01T05:01:25;91687.00;;;10.10;100.00
73941;BME280;62294;48.554;10.202;2023-06-01T05:03:53;91688.84;;;10.18;100.00
73941;BME280;62294;48.554;10.202;2023-06-01T05:06:22;91668.69;;;10.46;100.00
73941;BME280;62294;48.554;10.202;2023-06-01T05:08:49;91649.56;;;10.73;100.00
73941;BME280;62294;48.554;10.202;2023-06-01T05:11:16;91625.97;;;11.04;100.00
73941;BME280;62294;48.554;10.202;2023-06-01T05:13:43;91610.97;;;11.32;100.00
73941;BME280;62294;48.554;10.202;2023-06-01T05:16:10;91620.88;;;11.56;100.00
73941;BME280;62294;48.554;10.202;2023-06-01T05:18:38;91640.41;;;11.72;100.00
73941;BME280;62294;48.554;10.202;2023-06-01T05:21:05;91654.47;;;11.97;100.00
73941;BME280;62294;48.554;10.202;2023-06-01T05:23:31;91660.22;;;12.23;100.00
73941;BME280;62294;48.554;10.202;2023-06-01T05:25:58;91676.25;;;12.51;100.00
73941;BME280;62294;48.554;10.202;2023-06-01T05:28:29;91685.59;;;12.84;100.00
73941;BME280;62294;48.554;10.202;2023-06-01T05:30:59;91685.97;;;13.38;100.00
73941;BME280;62294;48.554;10.202;2023-06-01T05:33:27;91503.88;;;15.26;100.00
73941;BME280;62294;48.554;10.202;2023-06-01T05:35:53;91421.41;;;17.24;100.00
73941;BME280;62294;48.554;10.202;2023-06-01T05:38:20;91557.19;;;18.88;100.00
73941;BME280;62294;48.554;10.202;2023-06-01T05:40:46;91898.03;;;20.54;100.00
73941;BME280;62294;48.554;10.202;2023-06-01T05:43:14;92714.13;;;20.97;100.00
73941;BME280;62294;48.554;10.202;2023-06-01T05:45:40;93280.53;;;22.72;100.00
73941;BME280;62294;48.554;10.202;2023-06-01T05:48:07;94161.72;;;23.63;100.00
73941;BME280;62294;48.554;10.202;2023-06-01T05:50:34;94578.72;;;24.87;100.00
73941;BME280;62294;48.554;10.202;2023-06-01T05:53:00;94779.47;;;25.88;100.00
73941;BME280;62294;48.554;10.202;2023-06-01T05:55:27;94780.94;;;26.85;100.00
73941;BME280;62294;48.554;10.202;2023-06-01T05:57:53;94398.63;;;27.14;100.00
73941;BME280;62294;48.554;10.202;2023-06-01T06:00:20;94294.69;;;27.68;100.00
73941;BME280;62294;48.554;10.202;2023-06-01T06:02:47;95142.59;;;28.16;100.00
73941;BME280;62294;48.554;10.202;2023-06-01T06:05:13;95611.19;;;28.34;100.00
73941;BME280;62294;48.554;10.202;2023-06-01T06:07:40;95763.88;;;28.68;100.00
73941;BME280;62294;48.554;10.202;2023-06-01T06:10:08;95795.09;;;29.15;100.00
73941;BME280;62294;48.554;10.202;2023-06-01T06:12:34;95920.16;;;29.84;100.00
73941;BME280;62294;48.554;10.202;2023-06-01T06:15:01;95998.91;;;29.75;100.00
73941;BME280;62294;48.554;10.202;2023-06-01T06:17:28;96051.22;;;28.84;100.00
73941;BME280;62294;48.554;10.202;2023-06-01T06:19:55;96063.78;;;29.95;100.00
73941;BME280;62294;48.554;10.202;2023-06-01T06:22:21;96064.69;;;30.47;100.00
73941;BME280;62294;48.554;10.202;2023-06-01T06:24:48;96061.53;;;31.40;100.00
73941;BME280;62294;48.554;10.202;2023-06-01T06:27:15;96070.19;;;30.23;100.00
73941;BME280;62294;48.554;10.202;2023-06-01T06:29:42;96082.38;;;29.77;100.00
73941;BME280;62294;48.554;10.202;2023-06-01T06:32:09;96071.78;;;30.48;100.00
73941;BME280;62294;48.554;10.202;2023-06-01T06:34:36;96067.88;;;30.61;100.00
73941;BME280;62294;48.554;10.202;2023-06-01T06:37:06;96069.72;;;30.57;100.00
73941;BME280;62294;48.554;10.202;2023-06-01T06:39:33;96073.34;;;30.61;100.00
73941;BME280;62294;48.554;10.202;2023-06-01T06:42:00;96069.16;;;30.40;100.00
73941;BME280;62294;48.554;10.202;2023-06-01T06:44:29;96082.28;;;29.53;100.00
73941;BME280;62294;48.554;10.202;2023-06-01T06:46:58;96077.94;;;29.97;100.00
73941;BME280;62294;48.554;10.202;2023-06-01T06:49:28;96078.94;;;29.80;100.00
73941;BME280;62294;48.554;10.202;2023-06-01T06:51:54;96073.22;;;29.28;100.00
73941;BME280;62294;48.554;10.202;2023-06-01T06:54:22;96081.06;;;27.80;100.00
73941;BME280;62294;48.554;10.202;2023-06-01T06:56:49;96075.19;;;28.07;100.00
73941;BME280;62294;48.554;10.202;2023-06-01T06:59:15;96074.28;;;27.86;100.00
73941;BME280;62294;48.554;10.202;2023-06-01T07:01:42;96080.06;;;27.30;100.00
73941;BME280;62294;48.554;10.202;2023-06-01T07:04:09;96073.84;;;26.95;100.00
73941;BME280;62294;48.554;10.202;2023-06-01T07:06:36;96079.16;;;26.74;100.00
73941;BME280;62294;48.554;10.202;2023-06-01T07:09:03;96073.50;;;28.24;100.00
73941;BME280;62294;48.554;10.202;2023-06-01T07:11:32;96077.03;;;27.23;100.00
73941;BME280;62294;48.554;10.202;2023-06-01T07:13:59;96082.28;;;27.45;100.00
73941;BME280;62294;48.554;10.202;2023-06-01T07:16:26;96078.66;;;27.24;100.00
73941;BME280;62294;48.554;10.202;2023-06-01T07:18:53;96069.81;;;28.20;100.00
73941;BME280;62294;48.554;10.202;2023-06-01T07:21:19;96063.28;;;29.24;100.00
73941;BME280;62294;48.554;10.202;2023-06-01T07:23:46;96074.16;;;28.50;100.00
73941;BME280;62294;48.554;10.202;2023-06-01T07:26:13;96067.19;;;27.56;100.00
73941;BME280;62294;48.554;10.202;2023-06-01T07:28:39;96080.28;;;26.91;100.00
73941;BME280;62294;48.554;10.202;2023-06-01T07:31:08;96079.16;;;28.19;100.00
73941;BME280;62294;48.554;10.202;2023-06-01T07:33:35;96078.09;;;28.32;100.00
73941;BME280;62294;48.554;10.202;2023-06-01T07:36:05;96062.78;;;29.55;100.00
73941;BME280;62294;48.554;10.202;2023-06-01T07:38:32;96050.06;;;30.19;100.00
73941;BME280;62294;48.554;10.202;2023-06-01T07:40:59;96055.47;;;30.79;100.00
73941;BME280;62294;48.554;10.202;2023-06-01T07:43:26;96054.63;;;30.51;100.00
73941;BME280;62294;48.554;10.202;2023-06-01T07:45:53;96045.91;;;30.73;100.00
73941;BME280;62294;48.554;10.202;2023-06-01T07:48:20;96046.13;;;30.68;100.00
73941;BME280;62294;48.554;10.202;2023-06-01T07:50:46;96076.59;;;28.72;100.00
73941;BME280;62294;48.554;10.202;2023-06-01T07:53:15;96059.34;;;29.45;100.00
73941;BME280;62294;48.554;10.202;2023-06-01T07:55:42;96041.72;;;31.47;100.00
73941;BME280;62294;48.554;10.202;2023-06-01T07:58:09;96057.81;;;29.81;100.00
73941;BME280;62294;48.554;10.202;2023-06-01T08:00:37;96040.84;;;33.06;100.00
73941;BME280;62294;48.554;10.202;2023-06-01T08:03:03;96030.91;;;34.57;100.00
73941;BME280;62294;48.554;10.202;2023-06-01T08:05:35;96018.94;;;35.79;100.00
73941;BME280;62294;48.554;10.202;2023-06-01T08:08:04;96033.19;;;35.11;100.00
73941;BME280;62294;48.554;10.202;2023-06-01T08:10:31;96027.63;;;35.81;100.00
73941;BME280;62294;48.554;10.202;2023-06-01T08:12:58;96022.34;;;35.61;100.00
73941;BME280;62294;48.554;10.202;2023-06-01T08:15:25;96033.16;;;34.25;100.00
73941;BME280;62294;48.554;10.202;2023-06-01T08:17:55;96042.78;;;33.67;100.00
73941;BME280;62294;48.554;10.202;2023-06-01T08:20:23;96034.84;;;32.66;100.00
73941;BME280;62294;48.554;10.202;2023-06-01T08:22:50;96049.53;;;31.45;100.00
73941;BME280;62294;48.554;10.202;2023-06-01T08:25:17;96050.38;;;32.08;100.00
73941;BME280;62294;48.554;10.202;2023-06-01T08:27:47;96042.41;;;32.03;100.00
73941;BME280;62294;48.554;10.202;2023-06-01T08:30:14;96065.47;;;29.75;100.00
73941;BME280;62294;48.554;10.202;2023-06-01T08:32:40;96057.31;;;31.15;100.00
73941;BME280;62294;48.554;10.202;2023-06-01T08:35:08;96040.72;;;31.98;100.00
73941;BME280;62294;48.554;10.202;2023-06-01T08:37:35;96032.09;;;32.66;100.00
73941;BME280;62294;48.554;10.202;2023-06-01T08:40:03;96033.34;;;32.87;100.00
73941;BME280;62294;48.554;10.202;2023-06-01T08:43:12;96038.59;;;31.76;100.00
73941;BME280;62294;48.554;10.202;2023-06-01T08:45:40;96031.63;;;33.18;100.00
73941;BME280;62294;48.554;10.202;2023-06-01T08:48:08;96024.03;;;34.21;100.00
73941;BME280;62294;48.554;10.202;2023-06-01T08:50:34;96030.53;;;33.87;100.00
73941;BME280;62294;48.554;10.202;2023-06-01T08:53:01;96047.78;;;31.52;100.00
73941;BME280;62294;48.554;10.202;2023-06-01T08:55:30;96035.75;;;32.19;100.00
73941;BME280;62294;48.554;10.202;2023-06-01T08:57:56;96046.09;;;31.36;100.00
73941;BME280;62294;48.554;10.202;2023-06-01T09:00:23;96039.13;;;31.97;100.00
73941;BME280;62294;48.554;10.202;2023-06-01T09:02:50;96038.03;;;32.17;100.00
73941;BME280;62294;48.554;10.202;2023-06-01T09:05:17;96041.28;;;31.17;100.00
73941;BME280;62294;48.554;10.202;2023-06-01T09:07:44;96048.94;;;29.96;100.00
73941;BME280;62294;48.554;10.202;2023-06-01T09:10:11;96047.03;;;30.72;100.00
73941;BME280;62294;48.554;10.202;2023-06-01T09:12:38;96032.91;;;32.85;100.00
73941;BME280;62294;48.554;10.202;2023-06-01T09:15:14;96028.28;;;33.70;100.00
73941;BME280;62294;48.554;10.202;2023-06-01T09:17:51;96024.25;;;32.68;100.00
73941;BME280;62294;48.554;10.202;2023-06-01T09:20:26;96032.16;;;32.35;100.00
73941;BME280;62294;48.554;10.202;2023-06-01T09:22:54;96034.81;;;30.70;100.00
73941;BME280;62294;48.554;10.202;2023-06-01T09:25:26;96037.91;;;31.51;100.00
73941;BME280;62294;48.554;10.202;2023-06-01T09:27:54;96040.75;;;31.12;100.00
73941;BME280;62294;48.554;10.202;2023-06-01T09:30:23;96018.06;;;33.28;100.00
73941;BME280;62294;48.554;10.202;2023-06-01T09:33:12;96034.09;;;31.56;100.00
73941;BME280;62294;48.554;10.202;2023-06-01T09:35:46;96019.09;;;33.85;100.00
73941;BME280;62294;48.554;10.202;2023-06-01T09:38:21;96019.84;;;34.31;100.00
73941;BME280;62294;48.554;10.202;2023-06-01T09:41:03;96027.16;;;32.05;100.00
73941;BME280;62294;48.554;10.202;2023-06-01T09:43:33;96048.72;;;29.11;100.00
73941;BME280;62294;48.554;10.202;2023-06-01T09:46:08;96029.84;;;31.43;100.00
73941;BME280;62294;48.554;10.202;2023-06-01T09:48:35;96033.41;;;31.75;100.00
73941;BME280;62294;48.554;10.202;2023-06-01T09:51:01;96056.72;;;27.67;100.00
73941;BME280;62294;48.554;10.202;2023-06-01T09:53:40;96037.00;;;27.99;100.00
73941;BME280;62294;48.554;10.202;2023-06-01T09:56:06;96022.78;;;29.98;100.00
73941;BME280;62294;48.554;10.202;2023-06-01T09:58:33;96029.75;;;29.39;100.00
73941;BME280;62294;48.554;10.202;2023-06-01T10:01:06;96022.22;;;29.81;100.00
73941;BME280;62294;48.554;10.202;2023-06-01T10:03:38;96009.84;;;29.75;100.00
73941;BME280;62294;48.554;10.202;2023-06-01T10:06:07;96011.13;;;30.13;100.00
73941;BME280;62294;48.554;10.202;2023-06-01T10:08:34;95993.63;;;30.82;100.00
73941;BME280;62294;48.554;10.202;2023-06-01T10:11:01;96000.97;;;31.49;100.00
73941;BME280;62294;48.554;10.202;2023-06-01T10:13:28;96008.06;;;29.79;100.00
73941;BME280;62294;48.554;10.202;2023-06-01T10:15:57;96003.88;;;29.36;100.00
73941;BME280;62294;48.554;10.202;2023-06-01T10:18:24;95997.25;;;30.86;100.00
73941;BME280;62294;48.554;10.202;2023-06-01T10:20:52;95992.31;;;31.78;100.00
73941;BME280;62294;48.554;10.202;2023-06-01T10:23:18;95993.47;;;32.28;100.00
73941;BME280;62294;48.554;10.202;2023-06-01T10:25:57;95997.13;;;30.95;100.00
73941;BME280;62294;48.554;10.202;2023-06-01T10:28:26;95983.28;;;32.63;100.00
73941;BME280;62294;48.554;10.202;2023-06-01T10:34:05;96008.44;;;28.38;100.00
73941;BME280;62294;48.554;10.202;2023-06-01T10:39:28;96009.59;;;28.78;100.00
73941;BME280;62294;48.554;10.202;2023-06-01T10:41:56;95980.44;;;30.88;100.00
73941;BME280;62294;48.554;10.202;2023-06-01T10:47:06;95999.38;;;29.89;100.00
73941;BME280;62294;48.554;10.202;2023-06-01T10:52:30;96006.78;;;28.66;100.00
73941;BME280;62294;48.554;10.202;2023-06-01T10:57:37;95977.94;;;30.82;100.00
73941;BME280;62294;48.554;10.202;2023-06-01T11:07:59;95966.06;;;31.96;100.00
73941;BME280;62294;48.554;10.202;2023-06-01T11:13:37;95962.69;;;32.57;100.00
73941;BME280;62294;48.554;10.202;2023-06-01T11:21:18;95962.69;;;31.56;100.00
73941;BME280;62294;48.554;10.202;2023-06-01T11:23:45;95959.50;;;32.20;100.00
73941;BME280;62294;48.554;10.202;2023-06-01T11:26:17;95942.94;;;33.77;100.00
73941;BME280;62294;48.554;10.202;2023-06-01T11:28:45;95946.84;;;33.76;100.00
73941;BME280;62294;48.554;10.202;2023-06-01T11:31:14;95944.44;;;32.87;100.00
73941;BME280;62294;48.554;10.202;2023-06-01T11:33:48;95928.59;;;34.16;100.00
73941;BME280;62294;48.554;10.202;2023-06-01T11:36:22;95929.53;;;34.27;100.00
73941;BME280;62294;48.554;10.202;2023-06-01T11:38:53;95929.34;;;33.65;100.00
73941;BME280;62294;48.554;10.202;2023-06-01T11:41:22;95940.56;;;32.69;100.00
73941;BME280;62294;48.554;10.202;2023-06-01T11:43:56;95942.16;;;31.07;100.00
73941;BME280;62294;48.554;10.202;2023-06-01T11:46:23;95957.94;;;30.54;100.00
73941;BME280;62294;48.554;10.202;2023-06-01T11:49:04;95937.56;;;31.11;100.00
73941;BME280;62294;48.554;10.202;2023-06-01T11:51:36;95961.56;;;28.68;100.00
73941;BME280;62294;48.554;10.202;2023-06-01T11:54:03;95967.69;;;27.28;100.00
73941;BME280;62294;48.554;10.202;2023-06-01T11:56:33;95940.38;;;30.31;100.00
73941;BME280;62294;48.554;10.202;2023-06-01T11:59:04;95929.63;;;32.18;100.00
73941;BME280;62294;48.554;10.202;2023-06-01T12:01:45;95930.16;;;32.24;100.00
73941;BME280;62294;48.554;10.202;2023-06-01T12:04:16;95906.59;;;34.20;100.00
73941;BME280;62294;48.554;10.202;2023-06-01T12:06:44;95918.13;;;33.77;100.00
73941;BME280;62294;48.554;10.202;2023-06-01T12:09:12;95917.88;;;34.41;100.00
73941;BME280;62294;48.554;10.202;2023-06-01T12:11:40;95907.72;;;34.45;100.00
73941;BME280;62294;48.554;10.202;2023-06-01T12:14:10;95923.34;;;33.36;100.00
73941;BME280;62294;48.554;10.202;2023-06-01T12:16:59;95922.47;;;33.78;100.00
73941;BME280;62294;48.554;10.202;2023-06-01T12:19:28;95920.59;;;33.36;100.00
73941;BME280;62294;48.554;10.202;2023-06-01T12:21:57;95902.63;;;34.21;100.00
73941;BME280;62294;48.554;10.202;2023-06-01T12:24:32;95933.97;;;31.69;100.00
73941;BME280;62294;48.554;10.202;2023-06-01T12:27:15;95900.38;;;34.26;100.00
73941;BME280;62294;48.554;10.202;2023-06-01T12:29:44;95898.97;;;35.03;100.00
73941;BME280;62294;48.554;10.202;2023-06-01T12:32:11;95897.78;;;35.47;100.00
73941;BME280;62294;48.554;10.202;2023-06-01T12:34:39;95903.78;;;35.13;100.00
73941;BME280;62294;48.554;10.202;2023-06-01T12:37:16;95921.75;;;31.67;100.00
73941;BME280;62294;48.554;10.202;2023-06-01T12:39:43;95898.56;;;33.14;100.00
73941;BME280;62294;48.554;10.202;2023-06-01T12:42:17;95896.72;;;33.67;100.00
73941;BME280;62294;48.554;10.202;2023-06-01T12:44:44;95886.38;;;34.42;100.00
73941;BME280;62294;48.554;10.202;2023-06-01T12:47:10;95927.25;;;29.04;100.00
73941;BME280;62294;48.554;10.202;2023-06-01T12:49:37;95910.03;;;31.54;100.00
73941;BME280;62294;48.554;10.202;2023-06-01T12:52:06;95898.56;;;31.83;100.00
73941;BME280;62294;48.554;10.202;2023-06-01T12:54:32;95888.09;;;32.23;100.00
73941;BME280;62294;48.554;10.202;2023-06-01T12:56:59;95903.56;;;31.78;100.00
73941;BME280;62294;48.554;10.202;2023-06-01T12:59:26;95877.56;;;33.28;100.00
73941;BME280;62294;48.554;10.202;2023-06-01T13:01:52;95887.56;;;32.95;100.00
73941;BME280;62294;48.554;10.202;2023-06-01T13:04:19;95895.19;;;32.44;100.00
73941;BME280;62294;48.554;10.202;2023-06-01T13:06:47;95905.56;;;30.19;100.00
73941;BME280;62294;48.554;10.202;2023-06-01T13:09:14;95895.69;;;31.29;100.00
73941;BME280;62294;48.554;10.202;2023-06-01T13:11:40;95889.31;;;31.41;100.00
73941;BME280;62294;48.554;10.202;2023-06-01T13:14:07;95887.13;;;31.97;100.00
73941;BME280;62294;48.554;10.202;2023-06-01T13:16:34;95862.69;;;34.41;100.00
73941;BME280;62294;48.554;10.202;2023-06-01T13:19:00;95867.50;;;34.14;100.00
73941;BME280;62294;48.554;10.202;2023-06-01T13:21:27;95868.75;;;32.01;100.00
73941;BME280;62294;48.554;10.202;2023-06-01T13:23:53;95906.66;;;28.41;100.00
73941;BME280;62294;48.554;10.202;2023-06-01T13:26:20;95881.25;;;28.52;100.00